sensor_id;sensor_type;location;lat;lon;timestamp;P1;durP1;ratioP1;P2;durP2;ratioP2
58015;SDS011;43809;52.110;20.964;2023-09-19T00:01:21;12.98;;;10.20;;
58015;SDS011;43809;52.110;20.964;2023-09-19T00:03:22;12.60;;;9.93;;
58015;SDS011;43809;52.110;20.964;2023-09-19T00:10:46;14.50;;;10.80;;
58015;SDS011;43809;52.110;20.964;2023-09-19T00:12:47;13.23;;;10.70;;
58015;SDS011;43809;52.110;20.964;2023-09-19T00:14:47;13.88;;;10.35;;
58015;SDS011;43809;52.110;20.964;2023-09-19T00:16:48;14.18;;;10.45;;
58015;SDS011;43809;52.110;20.964;2023-09-19T00:18:50;12.45;;;10.07;;
58015;SDS011;43809;52.110;20.964;2023-09-19T00:20:50;13.02;;;10.98;;
58015;SDS011;43809;52.110;20.964;2023-09-19T00:22:52;14.05;;;11.90;;
58015;SDS011;43809;52.110;20.964;2023-09-19T00:24:53;18.00;;;11.95;;
58015;SDS011;43809;52.110;20.964;2023-09-19T00:26:55;15.15;;;11.52;;
58015;SDS011;43809;52.110;20.964;2023-09-19T00:28:56;15.23;;;11.38;;
58015;SDS011;43809;52.110;20.964;2023-09-19T00:30:57;14.35;;;11.18;;
58015;SDS011;43809;52.110;20.964;2023-09-19T00:33:01;15.23;;;11.13;;
58015;SDS011;43809;52.110;20.964;2023-09-19T00:37:20;14.20;;;11.57;;
58015;SDS011;43809;52.110;20.964;2023-09-19T00:39:21;15.27;;;11.20;;
58015;SDS011;43809;52.110;20.964;2023-09-19T00:41:22;14.13;;;10.52;;
58015;SDS011;43809;52.110;20.964;2023-09-19T00:43:25;15.43;;;11.18;;
58015;SDS011;43809;52.110;20.964;2023-09-19T00:45:27;14.57;;;11.23;;
58015;SDS011;43809;52.110;20.964;2023-09-19T00:47:29;14.30;;;10.88;;
58015;SDS011;43809;52.110;20.964;2023-09-19T00:49:30;11.82;;;9.60;;
58015;SDS011;43809;52.110;20.964;2023-09-19T00:51:32;14.77;;;11.07;;
58015;SDS011;43809;52.110;20.964;2023-09-19T00:53:33;13.18;;;11.32;;
58015;SDS011;43809;52.110;20.964;2023-09-19T00:58:01;13.75;;;10.43;;
58015;SDS011;43809;52.110;20.964;2023-09-19T01:00:09;14.43;;;10.85;;
58015;SDS011;43809;52.110;20.964;2023-09-19T01:02:15;13.05;;;10.38;;
58015;SDS011;43809;52.110;20.964;2023-09-19T01:04:16;14.15;;;11.40;;
58015;SDS011;43809;52.110;20.964;2023-09-19T01:06:18;17.53;;;11.90;;
58015;SDS011;43809;52.110;20.964;2023-09-19T01:08:19;15.40;;;11.45;;
58015;SDS011;43809;52.110;20.964;2023-09-19T01:13:03;14.98;;;11.15;;
58015;SDS011;43809;52.110;20.964;2023-09-19T01:15:09;13.95;;;11.15;;
58015;SDS011;43809;52.110;20.964;2023-09-19T01:17:18;13.18;;;10.43;;
58015;SDS011;43809;52.110;20.964;2023-09-19T01:21:57;16.15;;;12.23;;
58015;SDS011;43809;52.110;20.964;2023-09-19T01:24:10;13.85;;;11.57;;
58015;SDS011;43809;52.110;20.964;2023-09-19T01:28:27;16.10;;;12.32;;
58015;SDS011;43809;52.110;20.964;2023-09-19T01:30:32;13.50;;;10.77;;
58015;SDS011;43809;52.110;20.964;2023-09-19T01:32:33;13.75;;;11.15;;
58015;SDS011;43809;52.110;20.964;2023-09-19T01:37:06;14.57;;;11.63;;
58015;SDS011;43809;52.110;20.964;2023-09-19T01:39:09;15.43;;;11.95;;
58015;SDS011;43809;52.110;20.964;2023-09-19T01:41:11;14.82;;;11.75;;
58015;SDS011;43809;52.110;20.964;2023-09-19T01:43:27;14.27;;;11.23;;
58015;SDS011;43809;52.110;20.964;2023-09-19T01:45:48;15.60;;;11.27;;
58015;SDS011;43809;52.110;20.964;2023-09-19T01:47:54;13.18;;;11.07;;
58015;SDS011;43809;52.110;20.964;2023-09-19T01:50:02;12.35;;;9.70;;
58015;SDS011;43809;52.110;20.964;2023-09-19T01:52:12;16.33;;;11.75;;
58015;SDS011;43809;52.110;20.964;2023-09-19T01:54:18;14.68;;;11.18;;
58015;SDS011;43809;52.110;20.964;2023-09-19T01:56:28;16.05;;;12.38;;
58015;SDS011;43809;52.110;20.964;2023-09-19T01:58:45;14.68;;;11.05;;
58015;SDS011;43809;52.110;20.964;2023-09-19T02:00:46;15.10;;;11.13;;
58015;SDS011;43809;52.110;20.964;2023-09-19T02:02:48;13.85;;;10.85;;
58015;SDS011;43809;52.110;20.964;2023-09-19T02:04:49;13.93;;;10.98;;
58015;SDS011;43809;52.110;20.964;2023-09-19T02:06:51;15.80;;;11.10;;
58015;SDS011;43809;52.110;20.964;2023-09-19T02:08:53;17.52;;;12.25;;
58015;SDS011;43809;52.110;20.964;2023-09-19T02:10:54;15.75;;;11.02;;
58015;SDS011;43809;52.110;20.964;2023-09-19T02:12:55;15.60;;;11.88;;
58015;SDS011;43809;52.110;20.964;2023-09-19T02:14:57;15.27;;;11.87;;
58015;SDS011;43809;52.110;20.964;2023-09-19T02:16:58;15.57;;;11.65;;
58015;SDS011;43809;52.110;20.964;2023-09-19T02:18:59;16.17;;;12.10;;
58015;SDS011;43809;52.110;20.964;2023-09-19T02:21:01;15.02;;;12.02;;
58015;SDS011;43809;52.110;20.964;2023-09-19T02:23:02;13.32;;;11.18;;
58015;SDS011;43809;52.110;20.964;2023-09-19T02:25:06;15.27;;;11.40;;
58015;SDS011;43809;52.110;20.964;2023-09-19T02:27:08;13.52;;;11.20;;
58015;SDS011;43809;52.110;20.964;2023-09-19T02:29:09;15.82;;;11.10;;
58015;SDS011;43809;52.110;20.964;2023-09-19T02:33:12;14.55;;;11.30;;
58015;SDS011;43809;52.110;20.964;2023-09-19T02:35:13;15.50;;;11.68;;
58015;SDS011;43809;52.110;20.964;2023-09-19T02:37:15;14.18;;;11.60;;
58015;SDS011;43809;52.110;20.964;2023-09-19T02:39:16;15.53;;;11.70;;
58015;SDS011;43809;52.110;20.964;2023-09-19T02:41:17;18.75;;;11.93;;
58015;SDS011;43809;52.110;20.964;2023-09-19T02:43:18;15.18;;;11.77;;
58015;SDS011;43809;52.110;20.964;2023-09-19T02:47:45;16.67;;;11.63;;
58015;SDS011;43809;52.110;20.964;2023-09-19T02:49:45;17.05;;;12.30;;
58015;SDS011;43809;52.110;20.964;2023-09-19T02:51:46;16.45;;;11.98;;
58015;SDS011;43809;52.110;20.964;2023-09-19T02:53:48;15.52;;;11.80;;
58015;SDS011;43809;52.110;20.964;2023-09-19T02:55:50;15.90;;;12.10;;
58015;SDS011;43809;52.110;20.964;2023-09-19T02:57:53;16.33;;;11.75;;
58015;SDS011;43809;52.110;20.964;2023-09-19T02:59:55;15.23;;;10.95;;
58015;SDS011;43809;52.110;20.964;2023-09-19T03:01:56;13.68;;;11.05;;
58015;SDS011;43809;52.110;20.964;2023-09-19T03:06:26;16.98;;;12.10;;
58015;SDS011;43809;52.110;20.964;2023-09-19T03:08:27;15.00;;;12.15;;
58015;SDS011;43809;52.110;20.964;2023-09-19T03:10:35;17.88;;;12.52;;
58015;SDS011;43809;52.110;20.964;2023-09-19T03:12:38;13.95;;;10.93;;
58015;SDS011;43809;52.110;20.964;2023-09-19T03:14:41;12.05;;;10.13;;
58015;SDS011;43809;52.110;20.964;2023-09-19T03:16:42;14.25;;;10.88;;
58015;SDS011;43809;52.110;20.964;2023-09-19T03:18:43;13.77;;;10.38;;
58015;SDS011;43809;52.110;20.964;2023-09-19T03:20:52;15.93;;;11.73;;
58015;SDS011;43809;52.110;20.964;2023-09-19T03:22:53;14.93;;;11.70;;
58015;SDS011;43809;52.110;20.964;2023-09-19T03:24:57;16.02;;;12.00;;
58015;SDS011;43809;52.110;20.964;2023-09-19T03:26:58;14.15;;;10.70;;
58015;SDS011;43809;52.110;20.964;2023-09-19T03:28:59;15.40;;;11.88;;
58015;SDS011;43809;52.110;20.964;2023-09-19T03:31:04;14.15;;;10.98;;
58015;SDS011;43809;52.110;20.964;2023-09-19T03:33:09;17.25;;;12.05;;
58015;SDS011;43809;52.110;20.964;2023-09-19T03:35:13;14.27;;;11.25;;
58015;SDS011;43809;52.110;20.964;2023-09-19T03:37:15;15.98;;;12.00;;
58015;SDS011;43809;52.110;20.964;2023-09-19T03:39:16;14.30;;;11.02;;
58015;SDS011;43809;52.110;20.964;2023-09-19T03:41:17;13.68;;;10.68;;
58015;SDS011;43809;52.110;20.964;2023-09-19T03:43:18;13.25;;;10.93;;
58015;SDS011;43809;52.110;20.964;2023-09-19T03:45:33;13.20;;;10.52;;
58015;SDS011;43809;52.110;20.964;2023-09-19T03:47:34;17.02;;;12.10;;
58015;SDS011;43809;52.110;20.964;2023-09-19T03:51:37;16.80;;;10.63;;
58015;SDS011;43809;52.110;20.964;2023-09-19T03:53:40;16.53;;;12.10;;
58015;SDS011;43809;52.110;20.964;2023-09-19T03:55:40;21.73;;;12.48;;
58015;SDS011;43809;52.110;20.964;2023-09-19T03:57:41;16.20;;;11.88;;
58015;SDS011;43809;52.110;20.964;2023-09-19T03:59:43;15.00;;;11.10;;
58015;SDS011;43809;52.110;20.964;2023-09-19T04:01:46;17.83;;;12.43;;
58015;SDS011;43809;52.110;20.964;2023-09-19T04:03:47;15.27;;;11.25;;
58015;SDS011;43809;52.110;20.964;2023-09-19T04:05:48;15.52;;;11.32;;
58015;SDS011;43809;52.110;20.964;2023-09-19T04:10:32;13.15;;;10.77;;
58015;SDS011;43809;52.110;20.964;2023-09-19T04:12:35;13.18;;;10.82;;
58015;SDS011;43809;52.110;20.964;2023-09-19T04:14:36;15.60;;;11.45;;
58015;SDS011;43809;52.110;20.964;2023-09-19T04:16:36;14.82;;;11.55;;
58015;SDS011;43809;52.110;20.964;2023-09-19T04:18:37;14.55;;;10.70;;
58015;SDS011;43809;52.110;20.964;2023-09-19T04:20:40;14.13;;;11.00;;
58015;SDS011;43809;52.110;20.964;2023-09-19T04:22:42;14.75;;;10.70;;
58015;SDS011;43809;52.110;20.964;2023-09-19T04:24:42;16.80;;;12.40;;
58015;SDS011;43809;52.110;20.964;2023-09-19T04:26:43;14.18;;;11.40;;
58015;SDS011;43809;52.110;20.964;2023-09-19T04:28:44;12.20;;;9.77;;
58015;SDS011;43809;52.110;20.964;2023-09-19T04:30:46;14.50;;;11.13;;
58015;SDS011;43809;52.110;20.964;2023-09-19T04:32:47;14.27;;;10.90;;
58015;SDS011;43809;52.110;20.964;2023-09-19T04:34:51;15.90;;;11.18;;
58015;SDS011;43809;52.110;20.964;2023-09-19T04:36:51;13.07;;;11.00;;
58015;SDS011;43809;52.110;20.964;2023-09-19T04:38:53;16.00;;;11.20;;
58015;SDS011;43809;52.110;20.964;2023-09-19T04:40:57;15.23;;;11.77;;
58015;SDS011;43809;52.110;20.964;2023-09-19T04:43:07;14.70;;;10.80;;
58015;SDS011;43809;52.110;20.964;2023-09-19T04:45:08;15.25;;;10.95;;
58015;SDS011;43809;52.110;20.964;2023-09-19T04:47:10;16.50;;;11.50;;
58015;SDS011;43809;52.110;20.964;2023-09-19T04:49:12;14.10;;;10.82;;
58015;SDS011;43809;52.110;20.964;2023-09-19T04:51:13;15.48;;;11.50;;
58015;SDS011;43809;52.110;20.964;2023-09-19T04:53:15;15.32;;;10.90;;
58015;SDS011;43809;52.110;20.964;2023-09-19T04:55:19;15.20;;;11.52;;
58015;SDS011;43809;52.110;20.964;2023-09-19T04:57:20;13.07;;;10.85;;
58015;SDS011;43809;52.110;20.964;2023-09-19T04:59:20;21.33;;;12.00;;
58015;SDS011;43809;52.110;20.964;2023-09-19T05:01:21;17.08;;;11.60;;
58015;SDS011;43809;52.110;20.964;2023-09-19T05:03:23;15.20;;;11.47;;
58015;SDS011;43809;52.110;20.964;2023-09-19T05:05:23;14.52;;;10.68;;
58015;SDS011;43809;52.110;20.964;2023-09-19T05:07:25;13.13;;;10.43;;
58015;SDS011;43809;52.110;20.964;2023-09-19T05:09:26;16.00;;;10.95;;
58015;SDS011;43809;52.110;20.964;2023-09-19T05:11:27;15.73;;;11.38;;
58015;SDS011;43809;52.110;20.964;2023-09-19T05:13:30;16.55;;;11.13;;
58015;SDS011;43809;52.110;20.964;2023-09-19T05:15:31;15.10;;;10.68;;
58015;SDS011;43809;52.110;20.964;2023-09-19T05:17:32;18.25;;;10.63;;
58015;SDS011;43809;52.110;20.964;2023-09-19T05:19:35;14.50;;;10.40;;
58015;SDS011;43809;52.110;20.964;2023-09-19T05:21:38;14.55;;;9.82;;
58015;SDS011;43809;52.110;20.964;2023-09-19T05:23:42;14.25;;;11.20;;
58015;SDS011;43809;52.110;20.964;2023-09-19T05:25:42;15.60;;;10.88;;
58015;SDS011;43809;52.110;20.964;2023-09-19T05:27:43;15.32;;;10.70;;
58015;SDS011;43809;52.110;20.964;2023-09-19T05:29:44;15.32;;;11.35;;
58015;SDS011;43809;52.110;20.964;2023-09-19T05:31:45;17.15;;;11.82;;
58015;SDS011;43809;52.110;20.964;2023-09-19T05:33:45;16.08;;;11.60;;
58015;SDS011;43809;52.110;20.964;2023-09-19T05:35:49;20.33;;;12.10;;
58015;SDS011;43809;52.110;20.964;2023-09-19T05:40:20;17.00;;;10.15;;
58015;SDS011;43809;52.110;20.964;2023-09-19T05:42:21;24.10;;;10.80;;
58015;SDS011;43809;52.110;20.964;2023-09-19T05:44:22;16.92;;;11.55;;
58015;SDS011;43809;52.110;20.964;2023-09-19T05:46:22;18.13;;;11.90;;
58015;SDS011;43809;52.110;20.964;2023-09-19T05:48:23;15.80;;;10.93;;
58015;SDS011;43809;52.110;20.964;2023-09-19T05:52:52;16.77;;;10.98;;
58015;SDS011;43809;52.110;20.964;2023-09-19T05:54:53;18.77;;;10.90;;
58015;SDS011;43809;52.110;20.964;2023-09-19T05:56:53;24.25;;;10.90;;
58015;SDS011;43809;52.110;20.964;2023-09-19T05:58:54;23.17;;;11.05;;
58015;SDS011;43809;52.110;20.964;2023-09-19T06:00:55;14.73;;;11.25;;
58015;SDS011;43809;52.110;20.964;2023-09-19T06:02:56;14.52;;;10.48;;
58015;SDS011;43809;52.110;20.964;2023-09-19T06:05:18;13.35;;;10.82;;
58015;SDS011;43809;52.110;20.964;2023-09-19T06:07:19;13.75;;;10.50;;
58015;SDS011;43809;52.110;20.964;2023-09-19T06:09:19;15.38;;;10.27;;
58015;SDS011;43809;52.110;20.964;2023-09-19T06:11:20;15.02;;;10.60;;
58015;SDS011;43809;52.110;20.964;2023-09-19T06:13:22;15.10;;;10.20;;
58015;SDS011;43809;52.110;20.964;2023-09-19T06:15:23;16.52;;;9.93;;
58015;SDS011;43809;52.110;20.964;2023-09-19T06:17:25;19.10;;;10.93;;
58015;SDS011;43809;52.110;20.964;2023-09-19T06:19:28;16.75;;;10.32;;
58015;SDS011;43809;52.110;20.964;2023-09-19T06:21:29;16.27;;;10.05;;
58015;SDS011;43809;52.110;20.964;2023-09-19T06:23:30;12.90;;;10.25;;
58015;SDS011;43809;52.110;20.964;2023-09-19T06:25:31;12.63;;;9.40;;
58015;SDS011;43809;52.110;20.964;2023-09-19T06:27:32;10.02;;;7.93;;
58015;SDS011;43809;52.110;20.964;2023-09-19T06:29:32;8.88;;;6.90;;
58015;SDS011;43809;52.110;20.964;2023-09-19T06:31:34;10.00;;;8.35;;
58015;SDS011;43809;52.110;20.964;2023-09-19T06:33:35;7.97;;;7.18;;
58015;SDS011;43809;52.110;20.964;2023-09-19T06:35:39;11.73;;;7.78;;
58015;SDS011;43809;52.110;20.964;2023-09-19T06:37:42;11.98;;;9.40;;
58015;SDS011;43809;52.110;20.964;2023-09-19T06:39:43;12.02;;;9.43;;
58015;SDS011;43809;52.110;20.964;2023-09-19T06:41:44;12.73;;;10.50;;
58015;SDS011;43809;52.110;20.964;2023-09-19T06:43:46;13.57;;;9.48;;
58015;SDS011;43809;52.110;20.964;2023-09-19T06:45:49;14.05;;;9.70;;
58015;SDS011;43809;52.110;20.964;2023-09-19T06:47:52;12.15;;;9.63;;
58015;SDS011;43809;52.110;20.964;2023-09-19T06:49:54;11.25;;;8.88;;
58015;SDS011;43809;52.110;20.964;2023-09-19T06:51:55;12.35;;;9.75;;
58015;SDS011;43809;52.110;20.964;2023-09-19T06:53:55;12.15;;;9.85;;
58015;SDS011;43809;52.110;20.964;2023-09-19T06:56:15;12.68;;;9.70;;
58015;SDS011;43809;52.110;20.964;2023-09-19T06:58:16;13.25;;;10.15;;
58015;SDS011;43809;52.110;20.964;2023-09-19T07:00:17;18.70;;;10.38;;
58015;SDS011;43809;52.110;20.964;2023-09-19T07:02:22;16.10;;;9.57;;
58015;SDS011;43809;52.110;20.964;2023-09-19T07:04:25;13.75;;;9.93;;
58015;SDS011;43809;52.110;20.964;2023-09-19T07:06:26;10.70;;;9.38;;
58015;SDS011;43809;52.110;20.964;2023-09-19T07:08:27;12.30;;;9.70;;
58015;SDS011;43809;52.110;20.964;2023-09-19T07:10:42;12.40;;;10.20;;
58015;SDS011;43809;52.110;20.964;2023-09-19T07:12:53;12.85;;;9.30;;
58015;SDS011;43809;52.110;20.964;2023-09-19T07:14:53;10.48;;;9.00;;
58015;SDS011;43809;52.110;20.964;2023-09-19T07:16:55;16.00;;;9.63;;
58015;SDS011;43809;52.110;20.964;2023-09-19T07:18:56;10.93;;;9.73;;
58015;SDS011;43809;52.110;20.964;2023-09-19T07:20:57;12.90;;;9.27;;
58015;SDS011;43809;52.110;20.964;2023-09-19T07:23:01;12.20;;;9.45;;
58015;SDS011;43809;52.110;20.964;2023-09-19T07:25:02;10.88;;;8.95;;
58015;SDS011;43809;52.110;20.964;2023-09-19T07:27:03;15.57;;;9.70;;
58015;SDS011;43809;52.110;20.964;2023-09-19T07:31:09;11.77;;;9.13;;
58015;SDS011;43809;52.110;20.964;2023-09-19T07:33:10;10.00;;;8.50;;
58015;SDS011;43809;52.110;20.964;2023-09-19T07:35:14;14.77;;;9.73;;
58015;SDS011;43809;52.110;20.964;2023-09-19T07:37:15;12.90;;;9.40;;
58015;SDS011;43809;52.110;20.964;2023-09-19T07:39:16;12.33;;;9.13;;
58015;SDS011;43809;52.110;20.964;2023-09-19T07:41:17;10.27;;;7.78;;
58015;SDS011;43809;52.110;20.964;2023-09-19T07:43:18;9.10;;;7.78;;
58015;SDS011;43809;52.110;20.964;2023-09-19T07:45:19;11.32;;;8.85;;
58015;SDS011;43809;52.110;20.964;2023-09-19T07:47:20;17.95;;;9.13;;
58015;SDS011;43809;52.110;20.964;2023-09-19T07:49:21;11.00;;;8.80;;
58015;SDS011;43809;52.110;20.964;2023-09-19T07:51:22;9.18;;;7.70;;
58015;SDS011;43809;52.110;20.964;2023-09-19T07:55:49;14.52;;;9.40;;
58015;SDS011;43809;52.110;20.964;2023-09-19T07:58:08;11.57;;;9.90;;
58015;SDS011;43809;52.110;20.964;2023-09-19T08:00:08;11.23;;;9.88;;
58015;SDS011;43809;52.110;20.964;2023-09-19T08:02:13;19.83;;;11.50;;
58015;SDS011;43809;52.110;20.964;2023-09-19T08:04:16;13.00;;;10.43;;
58015;SDS011;43809;52.110;20.964;2023-09-19T08:06:17;13.38;;;10.27;;
58015;SDS011;43809;52.110;20.964;2023-09-19T08:08:19;15.00;;;10.27;;
58015;SDS011;43809;52.110;20.964;2023-09-19T08:10:40;15.88;;;11.30;;
58015;SDS011;43809;52.110;20.964;2023-09-19T08:12:44;12.60;;;10.98;;
58015;SDS011;43809;52.110;20.964;2023-09-19T08:14:47;12.30;;;10.32;;
58015;SDS011;43809;52.110;20.964;2023-09-19T08:16:48;15.75;;;10.23;;
58015;SDS011;43809;52.110;20.964;2023-09-19T08:18:49;11.43;;;9.80;;
58015;SDS011;43809;52.110;20.964;2023-09-19T08:20:53;14.70;;;10.50;;
58015;SDS011;43809;52.110;20.964;2023-09-19T08:22:54;14.50;;;9.55;;
58015;SDS011;43809;52.110;20.964;2023-09-19T08:24:55;13.18;;;9.82;;
58015;SDS011;43809;52.110;20.964;2023-09-19T08:26:57;14.57;;;9.47;;
58015;SDS011;43809;52.110;20.964;2023-09-19T08:28:57;11.73;;;8.95;;
58015;SDS011;43809;52.110;20.964;2023-09-19T08:31:01;11.38;;;9.38;;
58015;SDS011;43809;52.110;20.964;2023-09-19T08:36:23;14.63;;;9.45;;
58015;SDS011;43809;52.110;20.964;2023-09-19T08:38:23;16.25;;;10.57;;
58015;SDS011;43809;52.110;20.964;2023-09-19T08:40:24;11.60;;;10.02;;
58015;SDS011;43809;52.110;20.964;2023-09-19T08:42:26;11.30;;;9.68;;
58015;SDS011;43809;52.110;20.964;2023-09-19T08:44:27;14.37;;;10.30;;
58015;SDS011;43809;52.110;20.964;2023-09-19T08:46:30;12.98;;;9.88;;
58015;SDS011;43809;52.110;20.964;2023-09-19T08:48:33;14.93;;;9.32;;
58015;SDS011;43809;52.110;20.964;2023-09-19T08:53:00;18.55;;;11.35;;
58015;SDS011;43809;52.110;20.964;2023-09-19T08:57:37;17.30;;;10.80;;
58015;SDS011;43809;52.110;20.964;2023-09-19T08:59:41;12.23;;;10.38;;
58015;SDS011;43809;52.110;20.964;2023-09-19T09:01:44;12.23;;;10.13;;
58015;SDS011;43809;52.110;20.964;2023-09-19T09:03:44;13.38;;;10.00;;
58015;SDS011;43809;52.110;20.964;2023-09-19T09:07:47;11.50;;;9.88;;
58015;SDS011;43809;52.110;20.964;2023-09-19T09:09:49;10.95;;;9.85;;
58015;SDS011;43809;52.110;20.964;2023-09-19T09:11:50;10.45;;;9.35;;
58015;SDS011;43809;52.110;20.964;2023-09-19T09:13:53;13.02;;;10.85;;
58015;SDS011;43809;52.110;20.964;2023-09-19T09:15:54;12.68;;;9.98;;
58015;SDS011;43809;52.110;20.964;2023-09-19T09:17:55;10.30;;;9.23;;
58015;SDS011;43809;52.110;20.964;2023-09-19T09:19:57;12.05;;;10.10;;
58015;SDS011;43809;52.110;20.964;2023-09-19T09:22:06;12.60;;;10.37;;
58015;SDS011;43809;52.110;20.964;2023-09-19T09:26:47;11.82;;;9.45;;
58015;SDS011;43809;52.110;20.964;2023-09-19T09:28:48;8.93;;;7.97;;
58015;SDS011;43809;52.110;20.964;2023-09-19T09:30:50;8.77;;;7.88;;
58015;SDS011;43809;52.110;20.964;2023-09-19T09:35:17;11.38;;;8.07;;
58015;SDS011;43809;52.110;20.964;2023-09-19T09:37:22;13.60;;;8.25;;
58015;SDS011;43809;52.110;20.964;2023-09-19T09:39:31;8.50;;;7.43;;
58015;SDS011;43809;52.110;20.964;2023-09-19T09:41:36;7.25;;;6.25;;
58015;SDS011;43809;52.110;20.964;2023-09-19T09:43:38;7.45;;;6.05;;
58015;SDS011;43809;52.110;20.964;2023-09-19T09:45:40;7.00;;;5.55;;
58015;SDS011;43809;52.110;20.964;2023-09-19T09:47:50;8.23;;;5.97;;
58015;SDS011;43809;52.110;20.964;2023-09-19T09:49:55;8.05;;;6.28;;
58015;SDS011;43809;52.110;20.964;2023-09-19T09:52:07;6.80;;;5.57;;
58015;SDS011;43809;52.110;20.964;2023-09-19T09:54:17;6.93;;;5.10;;
58015;SDS011;43809;52.110;20.964;2023-09-19T09:56:21;4.80;;;4.30;;
58015;SDS011;43809;52.110;20.964;2023-09-19T09:58:23;7.13;;;5.40;;
58015;SDS011;43809;52.110;20.964;2023-09-19T10:00:29;10.90;;;7.85;;
58015;SDS011;43809;52.110;20.964;2023-09-19T10:02:42;8.02;;;6.78;;
58015;SDS011;43809;52.110;20.964;2023-09-19T10:04:46;6.10;;;5.15;;
58015;SDS011;43809;52.110;20.964;2023-09-19T10:09:09;6.15;;;5.28;;
58015;SDS011;43809;52.110;20.964;2023-09-19T10:11:15;6.28;;;5.40;;
58015;SDS011;43809;52.110;20.964;2023-09-19T10:13:16;6.57;;;5.45;;
58015;SDS011;43809;52.110;20.964;2023-09-19T10:15:21;5.07;;;4.53;;
58015;SDS011;43809;52.110;20.964;2023-09-19T10:17:25;4.90;;;4.40;;
58015;SDS011;43809;52.110;20.964;2023-09-19T10:19:31;5.60;;;4.45;;
58015;SDS011;43809;52.110;20.964;2023-09-19T10:21:34;7.40;;;6.30;;
58015;SDS011;43809;52.110;20.964;2023-09-19T10:23:38;6.30;;;5.32;;
58015;SDS011;43809;52.110;20.964;2023-09-19T10:26:01;6.40;;;5.47;;
58015;SDS011;43809;52.110;20.964;2023-09-19T10:28:02;6.25;;;4.97;;
58015;SDS011;43809;52.110;20.964;2023-09-19T10:30:08;5.57;;;4.30;;
58015;SDS011;43809;52.110;20.964;2023-09-19T10:32:10;6.10;;;5.03;;
58015;SDS011;43809;52.110;20.964;2023-09-19T10:34:19;6.82;;;5.35;;
58015;SDS011;43809;52.110;20.964;2023-09-19T10:36:23;6.10;;;5.03;;
58015;SDS011;43809;52.110;20.964;2023-09-19T10:38:33;6.00;;;4.65;;
58015;SDS011;43809;52.110;20.964;2023-09-19T10:40:36;5.28;;;4.60;;
58015;SDS011;43809;52.110;20.964;2023-09-19T10:42:40;5.38;;;4.55;;
58015;SDS011;43809;52.110;20.964;2023-09-19T10:44:42;5.88;;;4.80;;
58015;SDS011;43809;52.110;20.964;2023-09-19T10:46:45;5.93;;;3.90;;
58015;SDS011;43809;52.110;20.964;2023-09-19T10:48:46;5.90;;;4.45;;
58015;SDS011;43809;52.110;20.964;2023-09-19T10:50:50;4.53;;;3.70;;
58015;SDS011;43809;52.110;20.964;2023-09-19T10:55:10;4.10;;;3.70;;
58015;SDS011;43809;52.110;20.964;2023-09-19T10:57:22;2.95;;;2.53;;
58015;SDS011;43809;52.110;20.964;2023-09-19T10:59:28;4.40;;;3.10;;
58015;SDS011;43809;52.110;20.964;2023-09-19T11:01:48;4.35;;;3.28;;
58015;SDS011;43809;52.110;20.964;2023-09-19T11:03:51;3.75;;;3.38;;
58015;SDS011;43809;52.110;20.964;2023-09-19T11:06:13;5.85;;;3.58;;
58015;SDS011;43809;52.110;20.964;2023-09-19T11:08:17;3.88;;;3.20;;
58015;SDS011;43809;52.110;20.964;2023-09-19T11:14:46;5.75;;;4.47;;
58015;SDS011;43809;52.110;20.964;2023-09-19T11:23:36;4.88;;;3.50;;
58015;SDS011;43809;52.110;20.964;2023-09-19T11:25:41;3.83;;;3.10;;
58015;SDS011;43809;52.110;20.964;2023-09-19T11:35:06;3.97;;;3.33;;
58015;SDS011;43809;52.110;20.964;2023-09-19T11:39:27;3.70;;;2.65;;
58015;SDS011;43809;52.110;20.964;2023-09-19T11:41:36;4.32;;;2.58;;
58015;SDS011;43809;52.110;20.964;2023-09-19T11:43:37;3.42;;;2.38;;
58015;SDS011;43809;52.110;20.964;2023-09-19T11:47:46;3.28;;;2.50;;
58015;SDS011;43809;52.110;20.964;2023-09-19T11:49:48;2.57;;;2.37;;
58015;SDS011;43809;52.110;20.964;2023-09-19T11:51:50;3.03;;;2.47;;
58015;SDS011;43809;52.110;20.964;2023-09-19T11:53:52;3.67;;;2.67;;
58015;SDS011;43809;52.110;20.964;2023-09-19T11:55:53;3.00;;;2.70;;
58015;SDS011;43809;52.110;20.964;2023-09-19T11:57:55;3.10;;;2.50;;
58015;SDS011;43809;52.110;20.964;2023-09-19T11:59:56;3.50;;;2.28;;
58015;SDS011;43809;52.110;20.964;2023-09-19T12:02:05;2.42;;;1.90;;
58015;SDS011;43809;52.110;20.964;2023-09-19T12:04:07;2.55;;;2.10;;
58015;SDS011;43809;52.110;20.964;2023-09-19T12:06:11;2.72;;;2.45;;
58015;SDS011;43809;52.110;20.964;2023-09-19T12:08:15;3.95;;;2.92;;
58015;SDS011;43809;52.110;20.964;2023-09-19T12:10:17;3.75;;;2.65;;
58015;SDS011;43809;52.110;20.964;2023-09-19T12:12:24;3.50;;;2.85;;
58015;SDS011;43809;52.110;20.964;2023-09-19T12:14:27;3.42;;;2.85;;
58015;SDS011;43809;52.110;20.964;2023-09-19T12:16:28;3.25;;;2.30;;
58015;SDS011;43809;52.110;20.964;2023-09-19T12:20:42;4.65;;;3.00;;
58015;SDS011;43809;52.110;20.964;2023-09-19T12:22:45;3.80;;;2.90;;
58015;SDS011;43809;52.110;20.964;2023-09-19T12:26:48;3.88;;;3.00;;
58015;SDS011;43809;52.110;20.964;2023-09-19T12:28:52;4.40;;;2.88;;
58015;SDS011;43809;52.110;20.964;2023-09-19T12:30:53;5.35;;;3.58;;
58015;SDS011;43809;52.110;20.964;2023-09-19T12:37:51;4.43;;;3.20;;
58015;SDS011;43809;52.110;20.964;2023-09-19T12:39:54;3.58;;;3.22;;
58015;SDS011;43809;52.110;20.964;2023-09-19T12:42:15;5.32;;;3.63;;
58015;SDS011;43809;52.110;20.964;2023-09-19T12:44:16;4.00;;;3.10;;
58015;SDS011;43809;52.110;20.964;2023-09-19T12:46:21;3.83;;;3.00;;
58015;SDS011;43809;52.110;20.964;2023-09-19T12:48:26;3.50;;;2.80;;
58015;SDS011;43809;52.110;20.964;2023-09-19T12:53:57;3.95;;;3.22;;
58015;SDS011;43809;52.110;20.964;2023-09-19T12:55:58;4.50;;;3.05;;
58015;SDS011;43809;52.110;20.964;2023-09-19T13:00:06;3.55;;;3.00;;
58015;SDS011;43809;52.110;20.964;2023-09-19T13:02:08;3.83;;;2.92;;
58015;SDS011;43809;52.110;20.964;2023-09-19T13:04:21;3.28;;;2.90;;
58015;SDS011;43809;52.110;20.964;2023-09-19T13:06:36;3.03;;;2.72;;
58015;SDS011;43809;52.110;20.964;2023-09-19T13:08:39;3.97;;;3.17;;
58015;SDS011;43809;52.110;20.964;2023-09-19T13:13:27;2.63;;;2.42;;
58015;SDS011;43809;52.110;20.964;2023-09-19T13:15:29;4.03;;;2.70;;
58015;SDS011;43809;52.110;20.964;2023-09-19T13:17:49;4.10;;;3.30;;
58015;SDS011;43809;52.110;20.964;2023-09-19T13:19:50;3.35;;;3.00;;
58015;SDS011;43809;52.110;20.964;2023-09-19T13:21:58;4.10;;;3.05;;
58015;SDS011;43809;52.110;20.964;2023-09-19T13:24:18;3.17;;;2.80;;
58015;SDS011;43809;52.110;20.964;2023-09-19T13:26:19;3.08;;;2.78;;
58015;SDS011;43809;52.110;20.964;2023-09-19T13:28:20;3.58;;;3.05;;
58015;SDS011;43809;52.110;20.964;2023-09-19T13:30:26;3.83;;;3.40;;
58015;SDS011;43809;52.110;20.964;2023-09-19T13:32:27;3.42;;;3.13;;
58015;SDS011;43809;52.110;20.964;2023-09-19T13:34:27;3.90;;;3.00;;
58015;SDS011;43809;52.110;20.964;2023-09-19T13:36:29;4.57;;;3.40;;
58015;SDS011;43809;52.110;20.964;2023-09-19T13:38:37;4.22;;;3.25;;
58015;SDS011;43809;52.110;20.964;2023-09-19T13:40:38;4.47;;;3.60;;